sensor_id;sensor_type;location;lat;lon;timestamp;P1;durP1;ratioP1;P2;durP2;ratioP2
8572;SDS011;4324;42.012;24.872;2022-07-22T00:01:39;7.30;;;6.60;;
8572;SDS011;4324;42.012;24.872;2022-07-22T00:04:06;7.53;;;6.63;;
8572;SDS011;4324;42.012;24.872;2022-07-22T00:06:34;9.20;;;7.10;;
8572;SDS011;4324;42.012;24.872;2022-07-22T00:09:01;7.17;;;6.47;;
8572;SDS011;4324;42.012;24.872;2022-07-22T00:11:29;7.43;;;6.73;;
8572;SDS011;4324;42.012;24.872;2022-07-22T00:13:55;7.57;;;5.97;;
8572;SDS011;4324;42.012;24.872;2022-07-22T00:16:22;6.73;;;6.00;;
8572;SDS011;4324;42.012;24.872;2022-07-22T00:18:50;7.03;;;6.23;;
8572;SDS011;4324;42.012;24.872;2022-07-22T00:21:17;6.93;;;6.27;;
8572;SDS011;4324;42.012;24.872;2022-07-22T00:23:45;6.33;;;5.67;;
8572;SDS011;4324;42.012;24.872;2022-07-22T00:26:12;7.93;;;6.60;;
8572;SDS011;4324;42.012;24.872;2022-07-22T00:28:39;6.73;;;6.13;;
8572;SDS011;4324;42.012;24.872;2022-07-22T00:31:06;7.40;;;6.70;;
8572;SDS011;4324;42.012;24.872;2022-07-22T00:33:33;8.03;;;6.97;;
8572;SDS011;4324;42.012;24.872;2022-07-22T00:36:00;7.53;;;6.67;;
8572;SDS011;4324;42.012;24.872;2022-07-22T00:38:26;7.50;;;6.83;;
8572;SDS011;4324;42.012;24.872;2022-07-22T00:40:55;8.43;;;6.60;;
8572;SDS011;4324;42.012;24.872;2022-07-22T00:43:21;7.40;;;6.57;;
8572;SDS011;4324;42.012;24.872;2022-07-22T00:45:48;8.13;;;6.60;;
8572;SDS011;4324;42.012;24.872;2022-07-22T00:48:15;7.73;;;7.00;;
8572;SDS011;4324;42.012;24.872;2022-07-22T00:50:42;7.53;;;6.77;;
8572;SDS011;4324;42.012;24.872;2022-07-22T00:53:09;7.70;;;7.10;;
8572;SDS011;4324;42.012;24.872;2022-07-22T00:55:36;8.10;;;7.30;;
8572;SDS011;4324;42.012;24.872;2022-07-22T00:58:05;7.17;;;6.47;;
8572;SDS011;4324;42.012;24.872;2022-07-22T01:00:32;6.57;;;5.97;;
8572;SDS011;4324;42.012;24.872;2022-07-22T01:02:59;6.80;;;6.20;;
8572;SDS011;4324;42.012;24.872;2022-07-22T01:05:26;6.90;;;6.30;;
8572;SDS011;4324;42.012;24.872;2022-07-22T01:07:53;6.97;;;6.30;;
8572;SDS011;4324;42.012;24.872;2022-07-22T01:10:20;7.43;;;6.63;;
8572;SDS011;4324;42.012;24.872;2022-07-22T01:12:47;6.50;;;6.00;;
8572;SDS011;4324;42.012;24.872;2022-07-22T01:15:15;7.10;;;6.33;;
8572;SDS011;4324;42.012;24.872;2022-07-22T01:17:42;7.00;;;6.50;;
8572;SDS011;4324;42.012;24.872;2022-07-22T01:20:11;6.60;;;6.10;;
8572;SDS011;4324;42.012;24.872;2022-07-22T01:22:38;7.30;;;6.63;;
8572;SDS011;4324;42.012;24.872;2022-07-22T01:25:05;6.70;;;6.10;;
8572;SDS011;4324;42.012;24.872;2022-07-22T01:27:32;7.80;;;7.00;;
8572;SDS011;4324;42.012;24.872;2022-07-22T01:29:59;7.83;;;7.13;;
8572;SDS011;4324;42.012;24.872;2022-07-22T01:32:26;8.10;;;7.33;;
8572;SDS011;4324;42.012;24.872;2022-07-22T01:34:53;7.23;;;6.37;;
8572;SDS011;4324;42.012;24.872;2022-07-22T01:37:21;7.07;;;6.47;;
8572;SDS011;4324;42.012;24.872;2022-07-22T01:39:48;8.30;;;6.43;;
8572;SDS011;4324;42.012;24.872;2022-07-22T01:42:15;9.10;;;7.13;;
8572;SDS011;4324;42.012;24.872;2022-07-22T01:44:42;9.47;;;6.20;;
8572;SDS011;4324;42.012;24.872;2022-07-22T01:47:09;15.90;;;11.20;;
8572;SDS011;4324;42.012;24.872;2022-07-22T01:49:36;9.90;;;8.70;;
8572;SDS011;4324;42.012;24.872;2022-07-22T01:52:04;10.10;;;7.33;;
8572;SDS011;4324;42.012;24.872;2022-07-22T01:54:32;6.40;;;5.90;;
8572;SDS011;4324;42.012;24.872;2022-07-22T01:56:59;6.87;;;6.27;;
8572;SDS011;4324;42.012;24.872;2022-07-22T01:59:26;7.10;;;6.50;;
8572;SDS011;4324;42.012;24.872;2022-07-22T02:01:53;7.10;;;6.50;;
8572;SDS011;4324;42.012;24.872;2022-07-22T02:04:20;7.27;;;6.07;;
8572;SDS011;4324;42.012;24.872;2022-07-22T02:06:47;7.37;;;6.50;;
8572;SDS011;4324;42.012;24.872;2022-07-22T02:09:14;7.00;;;6.40;;
8572;SDS011;4324;42.012;24.872;2022-07-22T02:11:42;6.50;;;6.00;;
8572;SDS011;4324;42.012;24.872;2022-07-22T02:14:09;6.90;;;6.23;;
8572;SDS011;4324;42.012;24.872;2022-07-22T02:16:36;6.53;;;6.00;;
8572;SDS011;4324;42.012;24.872;2022-07-22T02:19:03;6.33;;;5.90;;
8572;SDS011;4324;42.012;24.872;2022-07-22T02:21:30;6.43;;;5.90;;
8572;SDS011;4324;42.012;24.872;2022-07-22T02:23:57;7.00;;;6.40;;
8572;SDS011;4324;42.012;24.872;2022-07-22T02:26:24;7.53;;;6.90;;
8572;SDS011;4324;42.012;24.872;2022-07-22T02:28:52;9.47;;;8.67;;
8572;SDS011;4324;42.012;24.872;2022-07-22T02:31:19;8.27;;;7.57;;
8572;SDS011;4324;42.012;24.872;2022-07-22T02:33:46;8.47;;;7.20;;
8572;SDS011;4324;42.012;24.872;2022-07-22T02:36:13;7.30;;;6.70;;
8572;SDS011;4324;42.012;24.872;2022-07-22T02:38:40;7.33;;;6.73;;
8572;SDS011;4324;42.012;24.872;2022-07-22T02:41:07;7.30;;;6.60;;
8572;SDS011;4324;42.012;24.872;2022-07-22T02:43:34;7.60;;;6.77;;
8572;SDS011;4324;42.012;24.872;2022-07-22T02:46:03;7.63;;;6.93;;
8572;SDS011;4324;42.012;24.872;2022-07-22T02:48:30;7.00;;;6.30;;
8572;SDS011;4324;42.012;24.872;2022-07-22T02:50:57;7.00;;;6.37;;
8572;SDS011;4324;42.012;24.872;2022-07-22T02:53:24;6.87;;;6.27;;
8572;SDS011;4324;42.012;24.872;2022-07-22T02:55:51;6.43;;;6.00;;
8572;SDS011;4324;42.012;24.872;2022-07-22T02:58:18;6.80;;;6.20;;
8572;SDS011;4324;42.012;24.872;2022-07-22T03:00:45;8.87;;;6.60;;
8572;SDS011;4324;42.012;24.872;2022-07-22T03:03:13;6.80;;;6.20;;
8572;SDS011;4324;42.012;24.872;2022-07-22T03:05:40;7.20;;;6.50;;
8572;SDS011;4324;42.012;24.872;2022-07-22T03:08:07;6.77;;;5.93;;
8572;SDS011;4324;42.012;24.872;2022-07-22T03:10:34;7.40;;;6.70;;
8572;SDS011;4324;42.012;24.872;2022-07-22T03:13:00;6.73;;;6.20;;
8572;SDS011;4324;42.012;24.872;2022-07-22T03:15:27;6.77;;;5.90;;
8572;SDS011;4324;42.012;24.872;2022-07-22T03:17:54;6.80;;;6.20;;
8572;SDS011;4324;42.012;24.872;2022-07-22T03:20:22;7.40;;;6.80;;
8572;SDS011;4324;42.012;24.872;2022-07-22T03:22:49;7.23;;;6.53;;
8572;SDS011;4324;42.012;24.872;2022-07-22T03:25:16;6.80;;;6.20;;
8572;SDS011;4324;42.012;24.872;2022-07-22T03:27:43;8.43;;;6.33;;
8572;SDS011;4324;42.012;24.872;2022-07-22T03:30:11;7.10;;;6.47;;
8572;SDS011;4324;42.012;24.872;2022-07-22T03:32:38;6.73;;;5.77;;
8572;SDS011;4324;42.012;24.872;2022-07-22T03:35:09;7.57;;;6.73;;
8572;SDS011;4324;42.012;24.872;2022-07-22T03:37:38;9.90;;;8.80;;
8572;SDS011;4324;42.012;24.872;2022-07-22T03:40:05;7.50;;;6.80;;
8572;SDS011;4324;42.012;24.872;2022-07-22T03:42:32;8.13;;;7.27;;
8572;SDS011;4324;42.012;24.872;2022-07-22T03:44:59;8.67;;;7.83;;
8572;SDS011;4324;42.012;24.872;2022-07-22T03:47:26;8.50;;;7.80;;
8572;SDS011;4324;42.012;24.872;2022-07-22T03:49:53;7.90;;;7.20;;
8572;SDS011;4324;42.012;24.872;2022-07-22T03:52:20;7.40;;;6.90;;
8572;SDS011;4324;42.012;24.872;2022-07-22T03:54:48;6.87;;;6.20;;
8572;SDS011;4324;42.012;24.872;2022-07-22T03:57:15;8.37;;;6.60;;
8572;SDS011;4324;42.012;24.872;2022-07-22T03:59:42;7.77;;;6.93;;
8572;SDS011;4324;42.012;24.872;2022-07-22T04:02:09;7.10;;;6.50;;
8572;SDS011;4324;42.012;24.872;2022-07-22T04:04:36;6.80;;;6.27;;
8572;SDS011;4324;42.012;24.872;2022-07-22T04:07:02;7.87;;;6.97;;
8572;SDS011;4324;42.012;24.872;2022-07-22T04:09:29;7.67;;;6.97;;
8572;SDS011;4324;42.012;24.872;2022-07-22T04:11:58;7.53;;;6.67;;
8572;SDS011;4324;42.012;24.872;2022-07-22T04:14:24;11.00;;;10.00;;
8572;SDS011;4324;42.012;24.872;2022-07-22T04:16:51;7.63;;;6.93;;
8572;SDS011;4324;42.012;24.872;2022-07-22T04:19:18;7.90;;;7.30;;
8572;SDS011;4324;42.012;24.872;2022-07-22T04:21:45;7.10;;;6.50;;
8572;SDS011;4324;42.012;24.872;2022-07-22T04:24:12;7.80;;;7.20;;
8572;SDS011;4324;42.012;24.872;2022-07-22T04:26:39;8.27;;;7.13;;
8572;SDS011;4324;42.012;24.872;2022-07-22T04:29:07;7.07;;;6.57;;
8572;SDS011;4324;42.012;24.872;2022-07-22T04:31:34;7.70;;;6.90;;
8572;SDS011;4324;42.012;24.872;2022-07-22T04:34:01;7.27;;;6.67;;
8572;SDS011;4324;42.012;24.872;2022-07-22T04:36:28;6.57;;;6.07;;
8572;SDS011;4324;42.012;24.872;2022-07-22T04:38:55;9.07;;;7.73;;
8572;SDS011;4324;42.012;24.872;2022-07-22T04:41:22;7.90;;;7.30;;
8572;SDS011;4324;42.012;24.872;2022-07-22T04:43:49;7.47;;;6.87;;
8572;SDS011;4324;42.012;24.872;2022-07-22T04:46:17;7.00;;;6.40;;
8572;SDS011;4324;42.012;24.872;2022-07-22T04:48:44;7.47;;;6.87;;
8572;SDS011;4324;42.012;24.872;2022-07-22T04:51:11;7.60;;;6.80;;
8572;SDS011;4324;42.012;24.872;2022-07-22T04:53:38;12.47;;;8.33;;
8572;SDS011;4324;42.012;24.872;2022-07-22T04:56:05;9.00;;;8.03;;
8572;SDS011;4324;42.012;24.872;2022-07-22T04:58:33;8.13;;;7.53;;
8572;SDS011;4324;42.012;24.872;2022-07-22T05:01:00;13.20;;;11.43;;
8572;SDS011;4324;42.012;24.872;2022-07-22T05:03:28;10.83;;;9.83;;
8572;SDS011;4324;42.012;24.872;2022-07-22T05:05:55;8.43;;;7.73;;
8572;SDS011;4324;42.012;24.872;2022-07-22T05:08:22;7.50;;;6.90;;
8572;SDS011;4324;42.012;24.872;2022-07-22T05:10:49;8.23;;;7.50;;
8572;SDS011;4324;42.012;24.872;2022-07-22T05:13:16;8.37;;;7.57;;
8572;SDS011;4324;42.012;24.872;2022-07-22T05:15:43;8.93;;;7.50;;
8572;SDS011;4324;42.012;24.872;2022-07-22T05:18:09;11.03;;;7.40;;
8572;SDS011;4324;42.012;24.872;2022-07-22T05:20:38;8.30;;;7.50;;
8572;SDS011;4324;42.012;24.872;2022-07-22T05:23:05;7.90;;;7.20;;
8572;SDS011;4324;42.012;24.872;2022-07-22T05:25:36;8.20;;;6.67;;
8572;SDS011;4324;42.012;24.872;2022-07-22T05:28:04;8.40;;;7.57;;
8572;SDS011;4324;42.012;24.872;2022-07-22T05:30:31;7.47;;;6.90;;
8572;SDS011;4324;42.012;24.872;2022-07-22T05:32:58;7.17;;;6.57;;
8572;SDS011;4324;42.012;24.872;2022-07-22T05:35:25;8.60;;;6.57;;
8572;SDS011;4324;42.012;24.872;2022-07-22T05:37:54;10.60;;;9.70;;
8572;SDS011;4324;42.012;24.872;2022-07-22T05:40:21;8.17;;;7.47;;
8572;SDS011;4324;42.012;24.872;2022-07-22T05:42:48;7.53;;;6.87;;
8572;SDS011;4324;42.012;24.872;2022-07-22T05:45:15;7.53;;;6.77;;
8572;SDS011;4324;42.012;24.872;2022-07-22T05:47:42;7.10;;;6.57;;
8572;SDS011;4324;42.012;24.872;2022-07-22T05:50:09;7.73;;;7.03;;
8572;SDS011;4324;42.012;24.872;2022-07-22T05:52:36;7.37;;;6.80;;
8572;SDS011;4324;42.012;24.872;2022-07-22T05:55:05;7.60;;;6.87;;
8572;SDS011;4324;42.012;24.872;2022-07-22T05:57:33;7.23;;;6.53;;
8572;SDS011;4324;42.012;24.872;2022-07-22T06:00:00;8.17;;;7.57;;
8572;SDS011;4324;42.012;24.872;2022-07-22T06:02:27;8.63;;;8.00;;
8572;SDS011;4324;42.012;24.872;2022-07-22T06:04:54;9.00;;;8.20;;
8572;SDS011;4324;42.012;24.872;2022-07-22T06:07:21;9.40;;;8.57;;
8572;SDS011;4324;42.012;24.872;2022-07-22T06:09:50;11.60;;;10.47;;
8572;SDS011;4324;42.012;24.872;2022-07-22T06:12:18;23.63;;;21.47;;
8572;SDS011;4324;42.012;24.872;2022-07-22T06:14:45;9.80;;;8.90;;
8572;SDS011;4324;42.012;24.872;2022-07-22T06:17:12;12.43;;;9.43;;
8572;SDS011;4324;42.012;24.872;2022-07-22T06:19:39;9.47;;;7.93;;
8572;SDS011;4324;42.012;24.872;2022-07-22T06:22:06;9.03;;;8.23;;
8572;SDS011;4324;42.012;24.872;2022-07-22T06:24:35;9.10;;;8.13;;
8572;SDS011;4324;42.012;24.872;2022-07-22T06:27:02;8.60;;;7.70;;
8572;SDS011;4324;42.012;24.872;2022-07-22T06:29:30;9.63;;;7.47;;
8572;SDS011;4324;42.012;24.872;2022-07-22T06:31:57;7.53;;;6.93;;
8572;SDS011;4324;42.012;24.872;2022-07-22T06:34:24;7.77;;;6.97;;
8572;SDS011;4324;42.012;24.872;2022-07-22T06:36:51;8.93;;;8.13;;
8572;SDS011;4324;42.012;24.872;2022-07-22T06:39:19;8.17;;;7.47;;
8572;SDS011;4324;42.012;24.872;2022-07-22T06:41:45;10.57;;;9.20;;
8572;SDS011;4324;42.012;24.872;2022-07-22T06:44:12;8.53;;;7.57;;
8572;SDS011;4324;42.012;24.872;2022-07-22T06:46:41;11.00;;;10.03;;
8572;SDS011;4324;42.012;24.872;2022-07-22T06:49:08;20.83;;;18.90;;
8572;SDS011;4324;42.012;24.872;2022-07-22T06:51:35;8.47;;;7.73;;
8572;SDS011;4324;42.012;24.872;2022-07-22T06:54:02;8.33;;;7.53;;
8572;SDS011;4324;42.012;24.872;2022-07-22T06:56:29;10.10;;;9.10;;
8572;SDS011;4324;42.012;24.872;2022-07-22T06:58:56;9.53;;;8.47;;
8572;SDS011;4324;42.012;24.872;2022-07-22T07:01:23;10.47;;;9.23;;
8572;SDS011;4324;42.012;24.872;2022-07-22T07:03:52;10.07;;;9.07;;
8572;SDS011;4324;42.012;24.872;2022-07-22T07:06:19;8.90;;;8.07;;
8572;SDS011;4324;42.012;24.872;2022-07-22T07:08:46;10.70;;;9.33;;
8572;SDS011;4324;42.012;24.872;2022-07-22T07:11:13;13.93;;;9.53;;
8572;SDS011;4324;42.012;24.872;2022-07-22T07:13:40;11.20;;;10.07;;
8572;SDS011;4324;42.012;24.872;2022-07-22T07:16:07;12.03;;;10.83;;
8572;SDS011;4324;42.012;24.872;2022-07-22T07:18:34;16.57;;;9.87;;
8572;SDS011;4324;42.012;24.872;2022-07-22T07:21:04;15.27;;;10.73;;
8572;SDS011;4324;42.012;24.872;2022-07-22T07:23:31;12.10;;;10.23;;
8572;SDS011;4324;42.012;24.872;2022-07-22T07:25:58;10.00;;;9.27;;
8572;SDS011;4324;42.012;24.872;2022-07-22T07:28:26;10.00;;;9.10;;
8572;SDS011;4324;42.012;24.872;2022-07-22T07:30:52;12.13;;;10.93;;
8572;SDS011;4324;42.012;24.872;2022-07-22T07:33:20;13.50;;;10.90;;
8572;SDS011;4324;42.012;24.872;2022-07-22T07:35:47;12.00;;;9.67;;
8572;SDS011;4324;42.012;24.872;2022-07-22T07:38:15;12.57;;;11.00;;
8572;SDS011;4324;42.012;24.872;2022-07-22T07:40:43;14.23;;;12.87;;
8572;SDS011;4324;42.012;24.872;2022-07-22T07:43:10;11.63;;;10.43;;
8572;SDS011;4324;42.012;24.872;2022-07-22T07:45:36;15.73;;;12.27;;
8572;SDS011;4324;42.012;24.872;2022-07-22T07:48:04;13.33;;;11.63;;
8572;SDS011;4324;42.012;24.872;2022-07-22T07:50:32;14.30;;;11.93;;
8572;SDS011;4324;42.012;24.872;2022-07-22T07:52:59;19.97;;;14.00;;
8572;SDS011;4324;42.012;24.872;2022-07-22T07:55:27;15.00;;;13.17;;
8572;SDS011;4324;42.012;24.872;2022-07-22T07:57:54;18.23;;;14.13;;
8572;SDS011;4324;42.012;24.872;2022-07-22T08:00:22;15.07;;;13.53;;
8572;SDS011;4324;42.012;24.872;2022-07-22T08:02:53;18.10;;;16.20;;
8572;SDS011;4324;42.012;24.872;2022-07-22T08:05:26;14.20;;;12.70;;
8572;SDS011;4324;42.012;24.872;2022-07-22T08:07:53;21.83;;;19.60;;
8572;SDS011;4324;42.012;24.872;2022-07-22T08:10:20;20.87;;;15.20;;
8572;SDS011;4324;42.012;24.872;2022-07-22T08:12:49;17.13;;;15.40;;
8572;SDS011;4324;42.012;24.872;2022-07-22T08:15:16;19.47;;;15.40;;
8572;SDS011;4324;42.012;24.872;2022-07-22T08:17:43;17.27;;;15.43;;
8572;SDS011;4324;42.012;24.872;2022-07-22T08:20:10;15.17;;;13.63;;
8572;SDS011;4324;42.012;24.872;2022-07-22T08:22:38;15.87;;;13.50;;
8572;SDS011;4324;42.012;24.872;2022-07-22T08:25:05;15.43;;;13.83;;
8572;SDS011;4324;42.012;24.872;2022-07-22T08:27:34;15.43;;;13.60;;
8572;SDS011;4324;42.012;24.872;2022-07-22T08:30:03;15.93;;;14.23;;
8572;SDS011;4324;42.012;24.872;2022-07-22T08:32:31;20.33;;;16.33;;
8572;SDS011;4324;42.012;24.872;2022-07-22T08:34:58;19.20;;;17.07;;
8572;SDS011;4324;42.012;24.872;2022-07-22T08:37:25;17.20;;;15.43;;
8572;SDS011;4324;42.012;24.872;2022-07-22T08:39:52;18.03;;;16.13;;
8572;SDS011;4324;42.012;24.872;2022-07-22T08:42:19;18.17;;;16.37;;
8572;SDS011;4324;42.012;24.872;2022-07-22T08:44:47;20.87;;;18.67;;
8572;SDS011;4324;42.012;24.872;2022-07-22T08:47:19;21.50;;;19.50;;
8572;SDS011;4324;42.012;24.872;2022-07-22T08:49:47;20.07;;;18.07;;
8572;SDS011;4324;42.012;24.872;2022-07-22T08:52:14;18.30;;;16.70;;
8572;SDS011;4324;42.012;24.872;2022-07-22T08:54:42;19.13;;;17.23;;
8572;SDS011;4324;42.012;24.872;2022-07-22T08:57:09;20.03;;;17.20;;
8572;SDS011;4324;42.012;24.872;2022-07-22T08:59:48;19.73;;;17.30;;
8572;SDS011;4324;42.012;24.872;2022-07-22T09:02:18;17.63;;;15.95;;
8572;SDS011;4324;42.012;24.872;2022-07-22T09:04:49;18.83;;;16.77;;
8572;SDS011;4324;42.012;24.872;2022-07-22T09:07:22;19.33;;;16.83;;
8572;SDS011;4324;42.012;24.872;2022-07-22T09:09:51;18.70;;;16.58;;
8572;SDS011;4324;42.012;24.872;2022-07-22T09:12:18;21.37;;;17.53;;
8572;SDS011;4324;42.012;24.872;2022-07-22T09:14:45;17.90;;;16.20;;
8572;SDS011;4324;42.012;24.872;2022-07-22T09:17:28;19.67;;;17.50;;
8572;SDS011;4324;42.012;24.872;2022-07-22T09:19:58;18.13;;;16.42;;
8572;SDS011;4324;42.012;24.872;2022-07-22T09:22:33;22.50;;;17.33;;
8572;SDS011;4324;42.012;24.872;2022-07-22T09:25:18;18.95;;;16.85;;
8572;SDS011;4324;42.012;24.872;2022-07-22T09:27:47;17.27;;;15.63;;
8572;SDS011;4324;42.012;24.872;2022-07-22T09:30:16;17.58;;;15.98;;
8572;SDS011;4324;42.012;24.872;2022-07-22T09:32:46;16.90;;;14.90;;
8572;SDS011;4324;42.012;24.872;2022-07-22T09:35:14;15.52;;;14.10;;
8572;SDS011;4324;42.012;24.872;2022-07-22T09:37:48;16.35;;;14.27;;
8572;SDS011;4324;42.012;24.872;2022-07-22T09:40:17;16.88;;;15.23;;
8572;SDS011;4324;42.012;24.872;2022-07-22T09:42:45;15.98;;;14.32;;
8572;SDS011;4324;42.012;24.872;2022-07-22T09:45:15;17.38;;;15.02;;
8572;SDS011;4324;42.012;24.872;2022-07-22T09:47:42;14.95;;;13.65;;
8572;SDS011;4324;42.012;24.872;2022-07-22T09:50:16;14.40;;;13.20;;
8572;SDS011;4324;42.012;24.872;2022-07-22T09:52:45;17.73;;;16.00;;
8572;SDS011;4324;42.012;24.872;2022-07-22T09:55:13;15.23;;;13.82;;
8572;SDS011;4324;42.012;24.872;2022-07-22T09:57:41;15.52;;;14.02;;
8572;SDS011;4324;42.012;24.872;2022-07-22T10:00:09;14.73;;;13.25;;
8572;SDS011;4324;42.012;24.872;2022-07-22T10:02:38;16.52;;;14.73;;
8572;SDS011;4324;42.012;24.872;2022-07-22T10:05:08;14.57;;;13.10;;
8572;SDS011;4324;42.012;24.872;2022-07-22T10:07:39;16.48;;;14.40;;
8572;SDS011;4324;42.012;24.872;2022-07-22T10:10:07;15.43;;;14.02;;
8572;SDS011;4324;42.012;24.872;2022-07-22T10:12:36;14.02;;;11.98;;
8572;SDS011;4324;42.012;24.872;2022-07-22T10:15:04;12.70;;;11.43;;
8572;SDS011;4324;42.012;24.872;2022-07-22T10:17:33;13.27;;;11.85;;
8572;SDS011;4324;42.012;24.872;2022-07-22T10:20:02;15.68;;;10.90;;
8572;SDS011;4324;42.012;24.872;2022-07-22T10:25:18;10.88;;;9.98;;
8572;SDS011;4324;42.012;24.872;2022-07-22T10:27:48;12.02;;;10.25;;
8572;SDS011;4324;42.012;24.872;2022-07-22T10:30:17;11.00;;;10.00;;
8572;SDS011;4324;42.012;24.872;2022-07-22T10:32:45;12.25;;;9.55;;
8572;SDS011;4324;42.012;24.872;2022-07-22T10:35:27;11.00;;;10.02;;
8572;SDS011;4324;42.012;24.872;2022-07-22T10:37:57;11.35;;;10.32;;
8572;SDS011;4324;42.012;24.872;2022-07-22T10:40:26;11.80;;;10.80;;
8572;SDS011;4324;42.012;24.872;2022-07-22T10:43:10;11.95;;;10.18;;
8572;SDS011;4324;42.012;24.872;2022-07-22T10:45:39;10.77;;;9.73;;
8572;SDS011;4324;42.012;24.872;2022-07-22T10:48:09;11.15;;;10.02;;
8572;SDS011;4324;42.012;24.872;2022-07-22T10:50:47;11.27;;;10.15;;
8572;SDS011;4324;42.012;24.872;2022-07-22T10:53:23;10.25;;;9.20;;
8572;SDS011;4324;42.012;24.872;2022-07-22T10:55:58;9.70;;;8.70;;
8572;SDS011;4324;42.012;24.872;2022-07-22T10:58:39;10.55;;;9.50;;
8572;SDS011;4324;42.012;24.872;2022-07-22T11:01:09;11.00;;;9.60;;
8572;SDS011;4324;42.012;24.872;2022-07-22T11:03:38;8.90;;;8.13;;
8572;SDS011;4324;42.012;24.872;2022-07-22T11:06:13;9.15;;;8.00;;
8572;SDS011;4324;42.012;24.872;2022-07-22T11:08:51;9.95;;;9.05;;
8572;SDS011;4324;42.012;24.872;2022-07-22T11:11:23;10.30;;;9.27;;
8572;SDS011;4324;42.012;24.872;2022-07-22T11:13:58;11.07;;;10.07;;
8572;SDS011;4324;42.012;24.872;2022-07-22T11:16:25;12.77;;;11.52;;
8572;SDS011;4324;42.012;24.872;2022-07-22T11:18:54;10.73;;;9.77;;
8572;SDS011;4324;42.012;24.872;2022-07-22T11:21:22;13.32;;;10.60;;
8572;SDS011;4324;42.012;24.872;2022-07-22T11:23:53;10.98;;;9.98;;
8572;SDS011;4324;42.012;24.872;2022-07-22T11:26:24;11.70;;;10.50;;
8572;SDS011;4324;42.012;24.872;2022-07-22T11:28:58;10.00;;;9.00;;
8572;SDS011;4324;42.012;24.872;2022-07-22T11:31:25;10.90;;;9.80;;
8572;SDS011;4324;42.012;24.872;2022-07-22T11:33:56;10.43;;;9.23;;
8572;SDS011;4324;42.012;24.872;2022-07-22T11:36:31;11.00;;;9.80;;
8572;SDS011;4324;42.012;24.872;2022-07-22T11:39:00;11.10;;;9.88;;
8572;SDS011;4324;42.012;24.872;2022-07-22T11:41:28;10.68;;;9.68;;
8572;SDS011;4324;42.012;24.872;2022-07-22T11:43:59;9.98;;;9.07;;
8572;SDS011;4324;42.012;24.872;2022-07-22T11:46:35;10.68;;;9.07;;
8572;SDS011;4324;42.012;24.872;2022-07-22T11:49:03;11.48;;;9.43;;
8572;SDS011;4324;42.012;24.872;2022-07-22T11:51:31;14.95;;;9.57;;
8572;SDS011;4324;42.012;24.872;2022-07-22T11:54:02;11.77;;;9.50;;
8572;SDS011;4324;42.012;24.872;2022-07-22T11:56:29;11.98;;;9.60;;
8572;SDS011;4324;42.012;24.872;2022-07-22T11:58:57;9.60;;;8.77;;
8572;SDS011;4324;42.012;24.872;2022-07-22T12:01:27;9.05;;;8.25;;
8572;SDS011;4324;42.012;24.872;2022-07-22T12:03:56;9.45;;;8.55;;
8572;SDS011;4324;42.012;24.872;2022-07-22T12:06:26;9.68;;;8.50;;
8572;SDS011;4324;42.012;24.872;2022-07-22T12:08:56;8.98;;;8.02;;
8572;SDS011;4324;42.012;24.872;2022-07-22T12:11:31;8.18;;;7.65;;
8572;SDS011;4324;42.012;24.872;2022-07-22T12:14:04;8.48;;;7.65;;
8572;SDS011;4324;42.012;24.872;2022-07-22T12:16:32;8.10;;;7.40;;
8572;SDS011;4324;42.012;24.872;2022-07-22T12:19:01;9.05;;;8.02;;
8572;SDS011;4324;42.012;24.872;2022-07-22T12:21:37;9.25;;;8.05;;
8572;SDS011;4324;42.012;24.872;2022-07-22T12:24:24;8.98;;;8.27;;
8572;SDS011;4324;42.012;24.872;2022-07-22T12:26:52;8.35;;;7.53;;
8572;SDS011;4324;42.012;24.872;2022-07-22T12:29:20;7.93;;;7.28;;
8572;SDS011;4324;42.012;24.872;2022-07-22T12:31:49;8.35;;;7.55;;
8572;SDS011;4324;42.012;24.872;2022-07-22T12:34:20;8.65;;;7.78;;
8572;SDS011;4324;42.012;24.872;2022-07-22T12:36:56;8.57;;;7.68;;
8572;SDS011;4324;42.012;24.872;2022-07-22T12:39:25;8.00;;;7.50;;
8572;SDS011;4324;42.012;24.872;2022-07-22T12:41:53;7.63;;;7.13;;
8572;SDS011;4324;42.012;24.872;2022-07-22T12:44:21;8.52;;;7.78;;
8572;SDS011;4324;42.012;24.872;2022-07-22T12:46:51;8.20;;;7.47;;
8572;SDS011;4324;42.012;24.872;2022-07-22T12:49:20;7.43;;;6.80;;
8572;SDS011;4324;42.012;24.872;2022-07-22T12:52:08;8.23;;;7.32;;
8572;SDS011;4324;42.012;24.872;2022-07-22T12:54:41;7.80;;;7.00;;
8572;SDS011;4324;42.012;24.872;2022-07-22T12:57:08;7.80;;;7.00;;
8572;SDS011;4324;42.012;24.872;2022-07-22T12:59:35;17.17;;;8.82;;
8572;SDS011;4324;42.012;24.872;2022-07-22T13:02:03;8.10;;;7.30;;
8572;SDS011;4324;42.012;24.872;2022-07-22T13:04:30;6.85;;;6.15;;
8572;SDS011;4324;42.012;24.872;2022-07-22T13:06:57;8.63;;;7.05;;
8572;SDS011;4324;42.012;24.872;2022-07-22T13:09:23;7.20;;;6.60;;
8572;SDS011;4324;42.012;24.872;2022-07-22T13:11:52;7.28;;;6.55;;
8572;SDS011;4324;42.012;24.872;2022-07-22T13:14:19;8.05;;;7.25;;
8572;SDS011;4324;42.012;24.872;2022-07-22T13:16:46;7.75;;;6.93;;
8572;SDS011;4324;42.012;24.872;2022-07-22T13:19:13;7.53;;;6.93;;
8572;SDS011;4324;42.012;24.872;2022-07-22T13:21:40;9.10;;;7.22;;
8572;SDS011;4324;42.012;24.872;2022-07-22T13:24:07;8.32;;;7.53;;
8572;SDS011;4324;42.012;24.872;2022-07-22T13:26:35;8.13;;;7.07;;
8572;SDS011;4324;42.012;24.872;2022-07-22T13:29:03;7.28;;;6.68;;
8572;SDS011;4324;42.012;24.872;2022-07-22T13:31:30;7.50;;;6.80;;
8572;SDS011;4324;42.012;24.872;2022-07-22T13:33:57;7.68;;;7.07;;
8572;SDS011;4324;42.012;24.872;2022-07-22T13:36:24;8.02;;;6.60;;
8572;SDS011;4324;42.012;24.872;2022-07-22T13:38:53;7.53;;;6.80;;
8572;SDS011;4324;42.012;24.872;2022-07-22T13:41:20;10.85;;;7.40;;
8572;SDS011;4324;42.012;24.872;2022-07-22T13:43:47;7.43;;;6.57;;
8572;SDS011;4324;42.012;24.872;2022-07-22T13:46:15;8.38;;;6.57;;
8572;SDS011;4324;42.012;24.872;2022-07-22T13:48:43;7.40;;;6.85;;
8572;SDS011;4324;42.012;24.872;2022-07-22T13:51:11;8.70;;;7.90;;
8572;SDS011;4324;42.012;24.872;2022-07-22T13:53:39;7.97;;;7.22;;
8572;SDS011;4324;42.012;24.872;2022-07-22T13:56:07;8.23;;;7.53;;
8572;SDS011;4324;42.012;24.872;2022-07-22T13:58:40;8.55;;;7.82;;
8572;SDS011;4324;42.012;24.872;2022-07-22T14:01:07;8.93;;;7.38;;
8572;SDS011;4324;42.012;24.872;2022-07-22T14:03:36;7.85;;;7.10;;
8572;SDS011;4324;42.012;24.872;2022-07-22T14:06:03;8.57;;;7.78;;
8572;SDS011;4324;42.012;24.872;2022-07-22T14:08:31;8.23;;;7.32;;
8572;SDS011;4324;42.012;24.872;2022-07-22T14:10:58;8.77;;;6.68;;
8572;SDS011;4324;42.012;24.872;2022-07-22T14:13:25;7.47;;;6.75;;
8572;SDS011;4324;42.012;24.872;2022-07-22T14:15:52;8.63;;;7.75;;
8572;SDS011;4324;42.012;24.872;2022-07-22T14:18:19;8.13;;;7.30;;
8572;SDS011;4324;42.012;24.872;2022-07-22T14:20:47;8.93;;;7.63;;
8572;SDS011;4324;42.012;24.872;2022-07-22T14:23:14;10.63;;;7.72;;
8572;SDS011;4324;42.012;24.872;2022-07-22T14:25:45;9.48;;;8.15;;
8572;SDS011;4324;42.012;24.872;2022-07-22T14:28:12;8.35;;;7.70;;
8572;SDS011;4324;42.012;24.872;2022-07-22T14:30:39;8.50;;;7.60;;
8572;SDS011;4324;42.012;24.872;2022-07-22T14:33:06;8.50;;;7.75;;
8572;SDS011;4324;42.012;24.872;2022-07-22T14:35:33;6.95;;;6.35;;
8572;SDS011;4324;42.012;24.872;2022-07-22T14:38:01;8.48;;;7.78;;
8572;SDS011;4324;42.012;24.872;2022-07-22T14:40:28;11.75;;;10.75;;
8572;SDS011;4324;42.012;24.872;2022-07-22T14:42:55;7.55;;;6.85;;
8572;SDS011;4324;42.012;24.872;2022-07-22T14:45:22;8.77;;;8.02;;
8572;SDS011;4324;42.012;24.872;2022-07-22T14:47:49;8.32;;;7.05;;
8572;SDS011;4324;42.012;24.872;2022-07-22T14:50:15;8.57;;;7.65;;
8572;SDS011;4324;42.012;24.872;2022-07-22T14:52:42;8.20;;;7.50;;
8572;SDS011;4324;42.012;24.872;2022-07-22T14:55:11;7.60;;;6.88;;
8572;SDS011;4324;42.012;24.872;2022-07-22T14:57:38;9.80;;;8.95;;
8572;SDS011;4324;42.012;24.872;2022-07-22T15:00:05;9.07;;;8.18;;
8572;SDS011;4324;42.012;24.872;2022-07-22T15:02:33;7.47;;;6.78;;